首页
METAR-TAF:

METAR-TAF

机场 :

浮羅交怡國際機場

浮罗交怡, 马来西亚

纬度: 06-20N, 经度: 099-44E, 海拔: 8米

当前天气观测

该预报发布于21分钟前的13:00 UTC
风速2节,风向多变
温度 26°C
湿度 89%
气压 1010 hPa
能见度10公里或以上
少量云层高于2600英尺

METAR: WMKL 171300Z VRB02KT 9999 FEW026 26/24 Q1010

时间: 21:21 (13:21 UTC)

预报

该预报发布于2小时和21分钟前的11:00 UTC
预报有效从17日的 12点(UTC)到 18日的 12点(UTC)
风速3节,风向多变
能见度10公里或以上
少量云层高于2600英尺
短暂存在
从 17日的 19点(UTC)到 18日的 00点(UTC)
能見度: 6000
少量云层高于1000英尺
少量云层高于1700英尺, 积雨云.
雷暴, 雨,

TAF: WMKL 171100Z 1712/1812 VRB03KT 9999 FEW026 TEMPO 1719/1800 6000 TSRA FEW010 FEW017CB

超过4000个机场的气象观测和天气预报(METAR&TAF报告)。

可查询的气象台以黄色和红色小点在地图上表示。

将鼠标移到小点上方,可查看气象台名称。

然后点击查看天气观测和预报。

如需切换地图:点击带黑十字的绿色按钮放大地图;点击带横线的绿色按钮缩小地图;或者点击绿色箭头查看邻近地区的地图。


METAR-TAF: